Time;durP1;ratioP1;P1;durP2;ratioP2;P2;SDS_P1;SDS_P2;PMS_P1;PMS_P2;Temp;Humidity;BMP_temperature;BMP_pressure;BME280_temperature;BME280_humidity;BME280_pressure;Samples;Min_cycle;Max_cycle;Signal;HPM_P1;HPM_P2
2022/06/30 00:00:32;;;;;;;12.90;11.63;;;;;;;19.68;71.92;101023.03;5029027;28;20052;-66
2022/06/30 00:02:57;;;;;;;12.63;11.43;;;;;;;19.68;71.76;101017.75;5038228;28;20815;-66
2022/06/30 00:05:22;;;;;;;11.45;10.35;;;;;;;19.65;71.53;101020.72;5045218;28;20032;-65
2022/06/30 00:07:48;;;;;;;11.85;10.65;;;;;;;19.67;71.23;101016.09;5030719;28;20017;-65
2022/06/30 00:10:14;;;;;;;11.68;10.57;;;;;;;19.69;70.69;101014.13;5036965;28;20025;-67
2022/06/30 00:12:40;;;;;;;11.95;10.73;;;;;;;19.60;71.29;101011.56;5040220;28;20031;-66
2022/06/30 00:15:06;;;;;;;11.98;10.82;;;;;;;19.69;71.43;101016.75;5041754;28;20079;-66
2022/06/30 00:17:31;;;;;;;11.95;10.75;;;;;;;19.62;71.55;101020.09;5044210;28;20032;-66
2022/06/30 00:19:57;;;;;;;12.57;11.38;;;;;;;19.56;72.04;101015.53;5046994;28;20029;-65
2022/06/30 00:22:22;;;;;;;12.20;10.98;;;;;;;19.57;72.26;101009.25;5045280;28;20029;-67
2022/06/30 00:24:47;;;;;;;11.38;10.18;;;;;;;19.61;72.58;101015.00;5044542;28;20456;-68
2022/06/30 00:27:13;;;;;;;12.18;11.07;;;;;;;19.52;72.72;101014.25;5047396;28;20017;-66
2022/06/30 00:29:39;;;;;;;12.40;11.30;;;;;;;19.50;72.11;101005.72;5043933;28;20461;-66
2022/06/30 00:32:05;;;;;;;11.90;10.77;;;;;;;19.48;72.08;101007.69;5044569;28;20044;-65
2022/06/30 00:34:30;;;;;;;11.40;10.40;;;;;;;19.48;72.03;101007.69;5045384;28;20477;-66
2022/06/30 00:36:55;;;;;;;11.57;10.40;;;;;;;19.47;71.54;101005.25;5040771;28;20071;-66
2022/06/30 00:39:21;;;;;;;11.90;10.70;;;;;;;19.28;71.73;100985.53;5040182;28;20097;-65
2022/06/30 00:41:47;;;;;;;12.10;10.90;;;;;;;19.40;71.13;101005.16;5045024;28;20049;-65
2022/06/30 00:44:13;;;;;;;12.13;10.93;;;;;;;19.38;70.56;100996.59;5047153;28;20025;-65
2022/06/30 00:46:39;;;;;;;11.75;10.60;;;;;;;19.33;70.46;100993.72;5035893;28;20028;-66
2022/06/30 00:49:06;;;;;;;11.63;10.52;;;;;;;19.24;70.18;100981.63;5044969;28;20033;-66
2022/06/30 00:51:31;;;;;;;11.60;10.60;;;;;;;19.25;70.64;100996.41;5033796;28;20071;-66
2022/06/30 00:54:00;;;;;;;12.18;11.07;;;;;;;19.26;69.78;100995.41;5047133;28;20021;-66
2022/06/30 00:56:27;;;;;;;12.38;11.27;;;;;;;19.22;69.91;100992.34;5035104;28;20044;-66
2022/06/30 00:58:55;;;;;;;12.15;11.02;;;;;;;19.18;70.23;100991.03;5040309;28;20032;-66
2022/06/30 01:01:21;;;;;;;12.95;11.65;;;;;;;19.13;70.70;100988.13;5046943;28;20067;-67
2022/06/30 01:03:47;;;;;;;13.70;12.43;;;;;;;19.03;72.06;100998.88;5041537;28;20021;-65
2022/06/30 01:06:13;;;;;;;13.43;12.13;;;;;;;19.06;71.54;100998.53;5040671;28;20504;-67
2022/06/30 01:08:39;;;;;;;13.75;12.35;;;;;;;18.89;72.15;100986.50;5028269;28;20029;-66
2022/06/30 01:13:49;;;;;;;12.85;11.65;;;;;;;19.07;71.84;100994.91;5035060;28;20505;-65
2022/06/30 01:16:15;;;;;;;12.52;11.43;;;;;;;19.03;70.10;100993.63;5024937;28;20021;-65
2022/06/30 01:18:40;;;;;;;13.10;11.55;;;;;;;18.94;70.92;100989.44;5037691;28;20508;-65
2022/06/30 01:21:06;;;;;;;12.75;11.55;;;;;;;18.88;71.49;101000.66;5041612;28;20036;-66
2022/06/30 01:23:32;;;;;;;12.73;11.52;;;;;;;18.97;70.82;101014.53;5042386;28;20469;-65
2022/06/30 01:25:57;;;;;;;12.88;11.68;;;;;;;18.78;71.13;101000.88;5044438;28;20033;-68
2022/06/30 01:28:22;;;;;;;13.55;12.18;;;;;;;18.87;70.84;101014.78;5045101;28;20025;-65
2022/06/30 01:30:48;;;;;;;12.90;11.70;;;;;;;18.83;71.42;101018.75;5046622;28;20032;-66
2022/06/30 01:33:13;;;;;;;13.70;12.40;;;;;;;18.87;70.48;101019.19;5043232;28;20029;-66
2022/06/30 01:35:39;;;;;;;14.20;12.90;;;;;;;18.77;70.70;101009.75;5046011;28;20626;-66
2022/06/30 01:38:05;;;;;;;13.77;12.50;;;;;;;18.76;70.68;101007.31;5044395;28;20669;-65
2022/06/30 01:40:35;;;;;;;13.98;12.57;;;;;;;18.77;71.08;101027.31;5038589;28;20088;-65
2022/06/30 01:43:05;;;;;;;13.10;11.88;;;;;;;18.81;71.01;101011.03;5028537;28;20195;-67
2022/06/30 01:45:30;;;;;;;12.90;11.70;;;;;;;18.77;71.74;101014.19;5039348;28;20119;-67
2022/06/30 01:47:56;;;;;;;12.75;11.65;;;;;;;18.73;71.44;100999.75;5043915;28;21139;-66
2022/06/30 01:50:24;;;;;;;13.20;12.00;;;;;;;18.64;71.66;101004.22;5045448;28;20021;-65
2022/06/30 01:52:50;;;;;;;13.02;11.82;;;;;;;18.66;71.60;101010.13;5043743;28;20349;-66
2022/06/30 01:55:15;;;;;;;14.15;12.68;;;;;;;18.58;71.90;101011.00;5042923;28;20566;-66
2022/06/30 01:57:41;;;;;;;13.52;12.32;;;;;;;18.68;71.52;101015.22;5036571;28;20477;-65
2022/06/30 02:00:15;;;;;;;13.80;12.45;;;;;;;18.54;72.15;101014.13;5042192;28;20028;-66
2022/06/30 02:02:41;;;;;;;13.90;12.40;;;;;;;18.63;72.07;101017.50;5045388;28;20083;-65
2022/06/30 02:05:08;;;;;;;15.02;13.52;;;;;;;18.71;71.56;101007.81;5042559;28;20029;-67
2022/06/30 02:07:36;;;;;;;16.45;14.95;;;;;;;18.71;71.26;101009.63;5039449;28;20352;-67
2022/06/30 02:10:10;;;;;;;17.35;15.88;;;;;;;18.78;70.96;101010.56;5027762;28;20048;-65
2022/06/30 02:12:45;;;;;;;17.75;16.15;;;;;;;18.78;71.10;101005.31;5032115;28;20453;-66
2022/06/30 02:15:13;;;;;;;17.60;16.10;;;;;;;18.78;71.05;100994.78;5033774;28;20060;-65
2022/06/30 02:17:39;;;;;;;18.58;16.88;;;;;;;18.83;70.94;101008.22;5025754;28;20025;-66
2022/06/30 02:20:09;;;;;;;18.67;16.98;;;;;;;18.86;71.05;101002.59;5025043;28;20041;-66
2022/06/30 02:22:36;;;;;;;18.75;17.08;;;;;;;18.87;71.16;101006.91;5038939;28;20032;-66
2022/06/30 02:25:03;;;;;;;19.50;17.75;;;;;;;18.84;71.68;101004.59;5043073;28;20067;-66
2022/06/30 02:27:29;;;;;;;19.77;17.85;;;;;;;18.92;71.69;101007.16;5033451;28;20473;-67
2022/06/30 02:29:54;;;;;;;19.40;17.80;;;;;;;18.86;71.84;101007.06;5041689;28;20040;-66
2022/06/30 02:32:20;;;;;;;19.75;18.15;;;;;;;18.86;71.56;101002.59;5038420;28;20021;-66
2022/06/30 02:34:47;;;;;;;21.35;19.35;;;;;;;18.88;71.90;101011.16;5031171;28;20041;-66
2022/06/30 02:37:12;;;;;;;20.70;18.85;;;;;;;18.90;71.47;101011.78;5027556;28;20033;-66
2022/06/30 02:39:38;;;;;;;20.65;18.73;;;;;;;18.85;71.83;101006.25;5036711;28;20048;-65
2022/06/30 02:42:04;;;;;;;20.33;18.45;;;;;;;18.84;72.07;101005.44;5033284;28;20548;-66
2022/06/30 02:44:29;;;;;;;20.70;18.90;;;;;;;18.87;71.92;101004.28;5037382;28;20184;-65
2022/06/30 02:46:55;;;;;;;20.55;18.85;;;;;;;18.90;71.86;100995.22;5031762;28;20017;-65
2022/06/30 02:49:21;;;;;;;20.45;18.52;;;;;;;18.90;71.89;100998.66;5024870;28;20394;-65
2022/06/30 02:51:48;;;;;;;20.55;18.80;;;;;;;18.82;72.08;100991.66;5026225;28;20104;-67
2022/06/30 02:54:14;;;;;;;21.58;19.77;;;;;;;18.80;72.55;100998.06;5037940;28;20051;-67
2022/06/30 02:56:40;;;;;;;21.48;19.48;;;;;;;18.77;72.64;100998.41;5033346;28;20032;-67
2022/06/30 02:59:06;;;;;;;21.48;19.60;;;;;;;18.69;72.29;100980.06;5032385;28;20112;-66
2022/06/30 03:01:31;;;;;;;21.65;19.80;;;;;;;18.73;72.82;100986.63;5042848;28;20134;-66
2022/06/30 03:03:57;;;;;;;21.35;19.45;;;;;;;18.60;72.93;100981.91;5032890;28;20045;-66
2022/06/30 03:06:22;;;;;;;22.77;20.77;;;;;;;18.62;73.48;100986.97;5030324;28;20128;-67
2022/06/30 03:08:47;;;;;;;22.92;20.90;;;;;;;18.62;73.13;100981.72;5034533;28;20031;-66
2022/06/30 03:11:16;;;;;;;22.27;20.30;;;;;;;18.55;73.65;100974.53;5029898;28;20470;-66
2022/06/30 03:13:44;;;;;;;;;;;;;;;18.79;71.88;100992.00;5028868;28;20033;-66
2022/06/30 03:16:11;;;;;;;23.33;21.33;;;;;;;18.52;73.64;100985.41;5042783;28;19919;-65
2022/06/30 03:18:37;;;;;;;22.42;20.50;;;;;;;18.49;73.94;100985.75;5031847;28;20035;-66
2022/06/30 03:21:02;;;;;;;23.95;21.85;;;;;;;18.49;74.02;100984.94;5033543;28;20112;-65
2022/06/30 03:23:28;;;;;;;23.50;21.30;;;;;;;18.56;73.51;100991.13;5027253;28;20018;-68
2022/06/30 03:25:53;;;;;;;23.83;21.77;;;;;;;18.62;73.43;100994.88;5027893;28;20674;-66
2022/06/30 03:28:19;;;;;;;24.30;21.95;;;;;;;18.60;72.87;101002.94;5039871;28;20662;-65
2022/06/30 03:30:47;;;;;;;24.60;22.30;;;;;;;18.53;73.43;100992.28;5026091;28;20037;-66
2022/06/30 03:33:17;;;;;;;25.10;23.00;;;;;;;18.50;74.06;100992.63;5038049;28;20035;-65
2022/06/30 03:35:42;;;;;;;25.00;22.90;;;;;;;18.49;73.78;100991.00;5027401;28;20041;-66
2022/06/30 03:38:08;;;;;;;25.20;22.95;;;;;;;18.48;74.21;101002.50;5025904;28;20071;-65
2022/06/30 03:40:33;;;;;;;24.58;22.55;;;;;;;18.54;74.02;101004.44;5026056;28;20037;-66
2022/06/30 03:43:00;;;;;;;24.15;22.05;;;;;;;18.44;74.63;100998.56;5037373;28;20055;-66
2022/06/30 03:45:26;;;;;;;25.95;23.65;;;;;;;18.43;74.71;100996.94;5029388;28;20037;-65
2022/06/30 03:47:51;;;;;;;25.17;23.10;;;;;;;18.40;74.59;100991.22;5034857;28;20029;-65
2022/06/30 03:50:17;;;;;;;25.45;23.45;;;;;;;18.40;74.78;100989.41;5028288;28;20473;-67
2022/06/30 03:52:42;;;;;;;26.08;23.80;;;;;;;18.39;75.04;100984.31;5027924;28;20368;-66
2022/06/30 03:55:08;;;;;;;25.42;23.33;;;;;;;18.33;74.41;100983.19;5026667;28;20155;-66
2022/06/30 03:57:34;;;;;;;24.85;22.63;;;;;;;18.21;75.72;100987.19;5037603;28;20033;-66
2022/06/30 03:59:59;;;;;;;25.85;23.70;;;;;;;18.16;75.48;100976.38;5034963;28;20059;-65
2022/06/30 04:02:25;;;;;;;26.70;24.50;;;;;;;18.10;75.74;100974.44;5031456;28;20104;-66
2022/06/30 04:04:50;;;;;;;26.15;24.02;;;;;;;18.20;75.42;100985.56;5030257;28;20465;-66
2022/06/30 04:07:16;;;;;;;26.50;24.17;;;;;;;18.10;75.81;100969.19;5030362;28;20416;-66
2022/06/30 04:09:41;;;;;;;25.95;23.75;;;;;;;18.21;76.05;100976.69;5029173;28;20104;-67
2022/06/30 04:12:06;;;;;;;26.27;24.13;;;;;;;18.21;75.84;100966.19;5037986;28;20053;-66
2022/06/30 04:14:32;;;;;;;27.10;24.73;;;;;;;18.13;75.52;100953.13;5026140;28;20688;-65
2022/06/30 04:16:57;;;;;;;26.33;24.05;;;;;;;18.23;75.52;100964.22;5030396;28;20036;-68
2022/06/30 04:19:23;;;;;;;26.80;24.60;;;;;;;18.17;76.30;100984.09;5027114;28;20044;-65
2022/06/30 04:21:49;;;;;;;28.60;25.98;;;;;;;18.00;76.75;100969.41;5030833;28;20528;-65
2022/06/30 04:24:14;;;;;;;27.55;25.20;;;;;;;18.07;76.78;100975.63;5044983;28;20036;-66
2022/06/30 04:26:40;;;;;;;26.63;24.42;;;;;;;18.15;76.24;100966.88;5044091;28;20024;-66
2022/06/30 04:29:05;;;;;;;27.40;25.05;;;;;;;18.18;76.77;100966.53;5047765;28;20033;-70
2022/06/30 04:34:14;;;;;;;28.90;26.50;;;;;;;18.24;76.50;100965.88;5048144;28;20314;-65
2022/06/30 04:36:39;;;;;;;29.10;26.60;;;;;;;18.19;76.79;100966.38;5043190;28;20048;-68
2022/06/30 04:39:05;;;;;;;30.38;27.88;;;;;;;18.24;75.87;100966.69;5036099;28;20096;-66
2022/06/30 04:41:30;;;;;;;30.05;27.35;;;;;;;18.26;76.26;100964.69;5046424;28;20069;-65
2022/06/30 04:43:58;;;;;;;30.60;27.88;;;;;;;18.34;75.83;100979.56;5044267;28;20025;-67
2022/06/30 04:46:24;;;;;;;30.30;27.60;;;;;;;18.36;75.83;100969.75;5035788;28;20029;-68
2022/06/30 04:48:50;;;;;;;31.05;28.45;;;;;;;18.34;75.83;100971.69;5034196;28;20025;-66
2022/06/30 04:51:16;;;;;;;31.35;28.58;;;;;;;18.36;75.95;100968.94;5043520;28;20041;-65
2022/06/30 04:53:42;;;;;;;30.13;27.52;;;;;;;18.44;75.68;100982.81;5042633;28;20065;-66
2022/06/30 04:56:08;;;;;;;31.55;28.85;;;;;;;18.46;75.05;100974.75;5042530;28;20059;-66
2022/06/30 04:58:34;;;;;;;31.88;29.13;;;;;;;18.47;74.61;100971.97;5038058;28;20163;-65
2022/06/30 05:00:59;;;;;;;31.42;28.73;;;;;;;18.51;74.75;100978.50;5039958;28;20111;-66
2022/06/30 05:03:25;;;;;;;32.17;29.58;;;;;;;18.50;75.41;100982.13;5035349;28;20372;-66
2022/06/30 05:05:50;;;;;;;33.13;30.35;;;;;;;18.49;75.78;100974.41;5039620;28;20036;-66
2022/06/30 05:08:16;;;;;;;33.28;30.38;;;;;;;18.57;75.73;100977.81;5044794;28;20053;-66
2022/06/30 05:10:41;;;;;;;33.50;30.70;;;;;;;18.66;75.55;100980.41;5034773;28;20764;-65
2022/06/30 05:13:07;;;;;;;33.47;30.83;;;;;;;18.66;75.34;100975.16;5027769;28;20021;-67
2022/06/30 05:15:35;;;;;;;33.67;30.65;;;;;;;18.73;75.36;100992.69;5037188;28;20581;-66
2022/06/30 05:18:01;;;;;;;33.00;30.10;;;;;;;18.81;74.62;100997.09;5026427;28;20057;-66
2022/06/30 05:20:27;;;;;;;31.92;29.25;;;;;;;18.84;74.89;101015.13;5026306;28;20060;-66
2022/06/30 05:22:52;;;;;;;30.77;28.17;;;;;;;18.78;75.20;100984.28;5032300;28;20078;-67
2022/06/30 05:28:02;;;;;;;31.17;28.40;;;;;;;18.81;75.69;100983.94;5029988;28;20072;-65
2022/06/30 05:30:28;;;;;;;29.83;27.42;;;;;;;18.78;76.15;100997.44;5045230;28;20033;-66
2022/06/30 05:32:53;;;;;;;28.85;26.38;;;;;;;18.84;74.80;100987.03;5042285;28;20392;-66
2022/06/30 05:35:19;;;;;;;28.73;26.20;;;;;;;18.92;75.09;100986.13;5040074;28;20408;-65
2022/06/30 05:37:44;;;;;;;28.30;25.83;;;;;;;18.95;75.11;101006.84;5037452;28;20052;-65
2022/06/30 05:40:10;;;;;;;27.40;25.10;;;;;;;18.96;74.22;100987.44;5044589;28;20025;-66
2022/06/30 05:42:35;;;;;;;27.55;25.10;;;;;;;18.99;74.69;100992.34;5037686;28;20080;-65
2022/06/30 05:45:01;;;;;;;26.63;24.33;;;;;;;19.02;74.65;100991.97;5037475;28;20029;-70
2022/06/30 05:47:27;;;;;;;28.70;26.23;;;;;;;19.07;74.83;100994.09;5026352;28;20032;-66
2022/06/30 05:49:52;;;;;;;28.40;26.10;;;;;;;19.07;75.25;100997.53;5042090;28;20269;-66
2022/06/30 05:52:17;;;;;;;28.70;26.35;;;;;;;19.07;75.11;100983.56;5031492;28;20107;-66
2022/06/30 05:54:43;;;;;;;30.02;27.52;;;;;;;19.12;76.21;100990.94;5044493;28;20064;-73
2022/06/30 05:57:08;;;;;;;30.15;27.75;;;;;;;19.15;76.06;100995.81;5044762;28;20055;-69
2022/06/30 05:59:34;;;;;;;30.75;28.33;;;;;;;19.17;76.02;100999.94;5043157;28;20032;-66
2022/06/30 06:02:00;;;;;;;31.58;29.02;;;;;;;19.23;76.14;100999.22;5043386;28;20051;-68
2022/06/30 06:04:26;;;;;;;31.35;28.75;;;;;;;19.31;76.09;101003.59;5044251;28;20064;-65
2022/06/30 06:06:52;;;;;;;30.80;28.35;;;;;;;19.34;76.63;101005.88;5046200;28;20021;-66
2022/06/30 06:09:17;;;;;;;33.35;30.65;;;;;;;19.36;76.76;101003.88;5043973;28;20047;-66
2022/06/30 06:11:43;;;;;;;32.85;30.20;;;;;;;19.39;76.65;101007.97;5032257;28;20056;-68
2022/06/30 06:14:10;;;;;;;32.38;29.80;;;;;;;19.43;77.00;101009.22;5032904;28;20060;-66
2022/06/30 06:16:35;;;;;;;32.72;30.08;;;;;;;19.49;76.41;101004.06;5028707;28;20064;-66
2022/06/30 06:19:00;;;;;;;32.00;29.45;;;;;;;19.56;76.21;101004.19;5044954;28;20029;-66
2022/06/30 06:21:26;;;;;;;33.42;30.70;;;;;;;19.57;77.19;101006.63;5043498;28;20021;-65
2022/06/30 06:23:53;;;;;;;32.95;30.13;;;;;;;19.66;76.26;101014.47;5037103;28;20018;-66
2022/06/30 06:26:18;;;;;;;34.53;31.65;;;;;;;19.67;76.48;101016.09;5031494;28;20062;-67
2022/06/30 06:31:29;;;;;;;33.28;30.65;;;;;;;19.80;75.72;101016.31;5029863;28;20067;-67
2022/06/30 06:33:54;;;;;;;32.42;29.63;;;;;;;19.71;75.63;101017.38;5044794;28;20456;-66
2022/06/30 06:36:20;;;;;;;32.35;29.75;;;;;;;19.74;75.91;101017.03;5032875;28;20025;-68
2022/06/30 06:38:45;;;;;;;30.88;28.38;;;;;;;19.87;76.00;101009.31;5038063;28;20026;-66
2022/06/30 06:41:11;;;;;;;32.38;29.73;;;;;;;19.84;76.66;101007.88;5036099;28;20025;-65
2022/06/30 06:43:36;;;;;;;32.67;29.77;;;;;;;19.91;77.20;101023.75;5030058;28;20044;-66
2022/06/30 06:46:02;;;;;;;32.38;29.75;;;;;;;19.98;76.98;101019.41;5045084;28;20497;-66
2022/06/30 06:48:27;;;;;;;33.22;30.48;;;;;;;19.94;77.58;101018.13;5033432;28;20025;-66
2022/06/30 06:50:52;;;;;;;32.38;29.67;;;;;;;19.93;77.55;101029.66;5026714;28;20041;-66
2022/06/30 06:53:18;;;;;;;32.33;29.60;;;;;;;20.07;77.49;101030.63;5025310;28;20446;-66
2022/06/30 06:55:44;;;;;;;32.95;30.23;;;;;;;20.03;77.00;101032.84;5038257;28;20097;-68
2022/06/30 06:58:10;;;;;;;31.13;28.42;;;;;;;20.13;76.49;101038.66;5035874;28;20018;-66
2022/06/30 07:00:36;;;;;;;31.58;29.10;;;;;;;20.12;77.69;101042.25;5044859;28;20028;-68
2022/06/30 07:03:01;;;;;;;31.27;28.52;;;;;;;20.29;76.41;101047.34;5026436;28;20365;-66
2022/06/30 07:05:26;;;;;;;31.65;28.95;;;;;;;20.25;76.64;101035.56;5037933;28;20029;-66
2022/06/30 07:07:59;;;;;;;32.72;29.80;;;;;;;20.36;76.01;101043.00;5039643;28;20950;-66
2022/06/30 07:10:25;;;;;;;33.33;30.27;;;;;;;20.50;74.89;101047.44;5034738;28;20066;-67
2022/06/30 07:12:52;;;;;;;31.58;28.67;;;;;;;20.53;72.71;101041.81;5028607;28;20108;-66
2022/06/30 07:15:17;;;;;;;29.52;26.80;;;;;;;20.52;72.54;101052.50;5032698;28;20021;-66
2022/06/30 07:17:43;;;;;;;29.40;26.70;;;;;;;20.59;72.18;101056.88;5044278;28;20044;-66
2022/06/30 07:20:09;;;;;;;27.13;24.52;;;;;;;20.51;71.31;101059.59;5038342;28;20064;-65
2022/06/30 07:22:34;;;;;;;25.65;23.15;;;;;;;20.55;71.09;101066.16;5039695;28;20043;-65
2022/06/30 07:25:00;;;;;;;24.60;22.20;;;;;;;20.58;71.75;101073.66;5043052;28;20400;-66
2022/06/30 07:27:26;;;;;;;21.88;19.75;;;;;;;20.40;71.21;101075.84;5036565;28;20529;-65
2022/06/30 07:29:51;;;;;;;20.58;18.65;;;;;;;20.68;71.68;101092.66;5032962;28;20120;-65
2022/06/30 07:32:16;;;;;;;20.15;18.15;;;;;;;20.64;71.94;101091.41;5046583;28;20048;-69
2022/06/30 07:34:42;;;;;;;18.27;16.45;;;;;;;20.73;71.18;101091.28;5048837;28;20029;-66
2022/06/30 07:37:07;;;;;;;18.50;16.45;;;;;;;20.80;70.58;101092.16;5040887;28;20463;-65
2022/06/30 07:39:33;;;;;;;17.30;15.60;;;;;;;20.76;69.89;101096.16;5030690;28;20104;-68
2022/06/30 07:41:58;;;;;;;16.35;14.75;;;;;;;20.92;70.84;101106.50;5039731;28;20041;-67
2022/06/30 07:44:23;;;;;;;15.23;13.82;;;;;;;20.91;70.09;101104.88;5037961;28;20099;-66
2022/06/30 07:46:49;;;;;;;15.18;13.57;;;;;;;21.08;69.69;101108.91;5031844;28;20059;-69
2022/06/30 07:49:14;;;;;;;14.50;12.73;;;;;;;21.00;68.51;101110.88;5039436;28;20032;-66
2022/06/30 07:51:39;;;;;;;14.50;12.68;;;;;;;21.02;67.89;101107.03;5042907;28;20441;-66
2022/06/30 07:54:05;;;;;;;14.38;12.55;;;;;;;20.99;68.16;101112.69;5032845;28;20107;-69
2022/06/30 07:56:31;;;;;;;13.75;12.25;;;;;;;20.92;69.16;101109.13;5047765;28;20025;-65
2022/06/30 07:58:57;;;;;;;12.80;11.20;;;;;;;21.00;70.37;101114.31;5043498;28;20063;-65
2022/06/30 08:01:23;;;;;;;13.55;11.20;;;;;;;21.08;70.17;101132.66;5042467;28;20052;-66
2022/06/30 08:03:49;;;;;;;13.07;11.70;;;;;;;21.06;69.46;101124.13;5044728;28;20037;-67
2022/06/30 08:06:15;;;;;;;13.38;11.13;;;;;;;21.10;70.04;101130.63;5043365;28;20021;-66
2022/06/30 08:08:41;;;;;;;12.75;11.43;;;;;;;21.25;68.95;101124.50;5048089;28;20112;-66
2022/06/30 08:11:08;;;;;;;13.57;11.65;;;;;;;21.13;68.39;101135.56;5034437;28;20108;-66
2022/06/30 08:13:33;;;;;;;13.50;10.88;;;;;;;21.32;68.94;101138.59;5028413;28;20029;-65
2022/06/30 08:15:59;;;;;;;14.48;10.85;;;;;;;21.30;68.41;101130.06;5029494;28;20381;-65
2022/06/30 08:18:24;;;;;;;13.18;10.70;;;;;;;21.35;66.93;101127.69;5031989;28;20483;-66
2022/06/30 08:20:50;;;;;;;12.57;10.55;;;;;;;21.27;67.59;101125.13;5046441;28;20029;-65
2022/06/30 08:23:15;;;;;;;13.13;10.80;;;;;;;21.30;67.33;101124.78;5042777;28;20108;-66
2022/06/30 08:25:41;;;;;;;14.07;10.75;;;;;;;21.42;67.32;101118.00;5038118;28;20108;-65
2022/06/30 08:28:08;;;;;;;14.27;10.80;;;;;;;21.43;67.02;101124.91;5045664;28;20059;-65
2022/06/30 08:30:34;;;;;;;11.52;9.43;;;;;;;21.61;67.50;101117.34;5046124;28;20404;-68
2022/06/30 08:32:59;;;;;;;12.10;9.80;;;;;;;21.67;66.66;101116.59;5046683;28;20544;-68
2022/06/30 08:35:25;;;;;;;13.90;10.13;;;;;;;21.65;66.23;101113.31;5040654;28;20384;-66
2022/06/30 08:37:50;;;;;;;11.88;8.90;;;;;;;21.83;66.00;101114.69;5045543;28;20465;-66
2022/06/30 08:43:00;;;;;;;13.63;9.02;;;;;;;21.79;65.49;101108.16;5028476;28;20072;-66
2022/06/30 08:45:29;;;;;;;12.73;9.13;;;;;;;21.96;65.00;101109.47;5041263;28;20099;-65
2022/06/30 08:47:55;;;;;;;14.00;9.20;;;;;;;21.97;64.41;101106.66;5037420;28;20029;-65
2022/06/30 08:50:20;;;;;;;11.23;8.45;;;;;;;22.01;64.41;101107.09;5042238;28;20033;-67
2022/06/30 08:52:55;;;;;;;11.15;7.90;;;;;;;22.17;66.40;101106.81;5045018;28;20067;-65
2022/06/30 08:55:24;;;;;;;10.95;8.02;;;;;;;22.53;65.28;101111.88;5044132;28;20119;-65
2022/06/30 08:57:54;;;;;;;11.30;7.55;;;;;;;22.63;64.61;101118.63;5041572;28;20040;-67
2022/06/30 09:00:20;;;;;;;11.57;9.15;;;;;;;22.50;63.48;101122.03;5036596;28;20029;-66
2022/06/30 09:02:46;;;;;;;11.52;8.45;;;;;;;22.59;63.24;101120.03;5028672;28;20037;-72
2022/06/30 09:05:13;;;;;;;12.38;8.23;;;;;;;22.59;64.06;101118.19;5046557;28;20481;-66
2022/06/30 09:07:38;;;;;;;12.30;9.25;;;;;;;22.61;63.24;101116.19;5036515;28;20032;-65
2022/06/30 09:10:08;;;;;;;13.20;8.07;;;;;;;22.78;64.40;101128.06;5034983;28;20473;-65
2022/06/30 09:12:34;;;;;;;12.95;8.88;;;;;;;22.69;64.31;101121.28;5027056;28;20041;-66
2022/06/30 09:15:00;;;;;;;13.35;8.60;;;;;;;22.88;63.73;101114.50;5044838;28;20029;-66
2022/06/30 09:17:28;;;;;;;12.43;8.65;;;;;;;22.92;62.26;101114.91;5045532;28;20047;-65
2022/06/30 09:19:57;;;;;;;11.25;7.90;;;;;;;23.10;62.79;101111.69;5042588;28;20140;-65
2022/06/30 09:22:28;;;;;;;10.32;8.25;;;;;;;23.00;61.83;101114.72;5030962;28;20559;-65
2022/06/30 09:25:05;;;;;;;12.10;7.43;;;;;;;23.10;61.22;101120.44;5039708;28;20587;-66
2022/06/30 09:27:33;;;;;;;11.13;7.22;;;;;;;23.16;61.86;101127.56;5045324;28;20380;-67
2022/06/30 09:30:11;;;;;;;11.10;7.53;;;;;;;23.27;62.43;101129.63;5029011;28;20025;-65
2022/06/30 09:33:05;;;;;;;10.38;6.95;;;;;;;23.52;63.04;101121.13;5027057;28;20035;-66
2022/06/30 09:35:32;;;;;;;14.02;8.13;;;;;;;23.49;61.38;101122.31;5042243;28;20052;-66
2022/06/30 09:38:08;;;;;;;12.18;8.27;;;;;;;23.31;60.91;101130.84;5034473;28;20028;-65
2022/06/30 09:41:00;;;;;;;11.98;7.22;;;;;;;23.27;62.96;101137.56;5040447;28;20041;-65
2022/06/30 09:43:33;;;;;;;10.50;6.82;;;;;;;23.40;61.94;101128.00;5031087;28;20500;-66
2022/06/30 09:45:58;;;;;;;9.32;6.30;;;;;;;23.52;60.66;101126.41;5027449;28;20067;-65
2022/06/30 09:48:28;;;;;;;12.23;6.70;;;;;;;23.68;60.39;101131.31;5030000;28;20025;-65
2022/06/30 09:50:57;;;;;;;9.25;5.82;;;;;;;23.72;60.61;101132.53;5030664;28;20060;-65
2022/06/30 09:53:23;;;;;;;10.65;6.68;;;;;;;23.85;61.26;101137.00;5033036;28;20128;-66
2022/06/30 09:55:48;;;;;;;11.05;6.45;;;;;;;24.04;58.67;101135.38;5029269;28;20107;-65
2022/06/30 09:58:17;;;;;;;11.80;6.50;;;;;;;23.96;59.72;101138.22;5041057;28;20507;-67
2022/06/30 10:00:45;;;;;;;10.27;6.00;;;;;;;24.19;60.46;101138.59;5031060;28;20033;-65
2022/06/30 10:03:10;;;;;;;9.35;5.95;;;;;;;24.24;59.38;101136.13;5026697;28;20017;-66
2022/06/30 10:05:36;;;;;;;10.15;6.82;;;;;;;24.04;58.19;101145.97;5029440;28;20423;-67
2022/06/30 10:08:01;;;;;;;13.27;7.55;;;;;;;23.81;56.17;101126.03;5044256;28;20025;-67
2022/06/30 10:10:29;;;;;;;10.85;6.88;;;;;;;23.98;59.14;101146.81;5045438;28;20528;-68
2022/06/30 10:12:55;;;;;;;11.77;7.40;;;;;;;23.93;57.25;101144.75;5043047;28;20152;-66
2022/06/30 10:15:21;;;;;;;8.50;6.38;;;;;;;24.23;58.52;101145.13;5037924;28;20561;-65
2022/06/30 10:17:54;;;;;;;9.98;7.03;;;;;;;24.11;57.25;101152.06;5025613;28;20358;-67
2022/06/30 10:20:20;;;;;;;10.95;7.05;;;;;;;23.96;58.02;101148.81;5032228;28;20567;-66
2022/06/30 10:22:46;;;;;;;11.98;6.57;;;;;;;24.36;59.25;101129.19;5034265;28;20029;-65
2022/06/30 10:25:12;;;;;;;9.55;6.25;;;;;;;24.67;58.86;101145.44;5044098;28;20027;-66
2022/06/30 10:27:38;;;;;;;10.65;6.93;;;;;;;24.56;58.25;101138.94;5043553;28;20120;-65
2022/06/30 10:30:09;;;;;;;11.10;6.93;;;;;;;24.52;57.31;101143.03;5040671;28;20365;-68
2022/06/30 10:32:43;;;;;;;10.75;7.60;;;;;;;24.46;56.50;101143.88;5026046;28;20033;-68
2022/06/30 10:35:17;;;;;;;11.57;8.60;;;;;;;24.17;57.65;101145.13;5039634;28;20021;-66
2022/06/30 10:37:52;;;;;;;13.50;8.70;;;;;;;24.21;56.95;101147.19;5035210;28;20041;-65
2022/06/30 10:40:29;;;;;;;10.40;7.50;;;;;;;24.33;57.92;101150.81;5041998;28;20090;-65
2022/06/30 10:42:56;;;;;;;11.68;8.65;;;;;;;24.39;57.34;101153.69;5034534;28;20061;-66
2022/06/30 10:45:30;;;;;;;12.60;8.55;;;;;;;24.34;57.42;101141.88;5039829;28;20055;-65
2022/06/30 10:47:58;;;;;;;13.38;8.65;;;;;;;24.06;55.78;101143.94;5043073;28;20087;-66
2022/06/30 10:50:43;;;;;;;12.18;8.52;;;;;;;24.18;57.94;101136.97;5028480;28;20033;-67
2022/06/30 10:53:38;;;;;;;19.75;7.90;;;;;;;24.66;56.54;101128.72;5037398;28;20035;-66
2022/06/30 10:56:04;;;;;;;9.68;6.30;;;;;;;24.57;57.16;101129.97;5027722;28;20041;-65
2022/06/30 10:58:30;;;;;;;12.70;6.15;;;;;;;24.76;58.20;101123.75;5040393;28;20031;-66
2022/06/30 11:00:55;;;;;;;10.90;6.68;;;;;;;24.64;55.64;101115.63;5029629;28;20025;-65
2022/06/30 11:03:29;;;;;;;12.23;8.27;;;;;;;24.70;57.48;101124.59;5032726;28;20358;-65
2022/06/30 11:05:56;;;;;;;12.82;8.75;;;;;;;24.85;56.53;101122.50;5043264;28;20333;-65
2022/06/30 11:08:47;;;;;;;11.07;8.50;;;;;;;24.69;56.41;101122.97;5035784;28;20029;-65
2022/06/30 11:11:24;;;;;;;9.73;6.90;;;;;;;24.82;56.98;101122.91;5046785;28;20028;-65
2022/06/30 11:14:02;;;;;;;10.90;6.88;;;;;;;24.76;56.20;101125.59;5047500;28;20095;-66
2022/06/30 11:16:32;;;;;;;13.57;8.43;;;;;;;24.72;55.25;101122.56;5043826;28;20060;-66
2022/06/30 11:18:58;;;;;;;9.10;6.95;;;;;;;24.79;55.26;101122.53;5038520;28;20477;-66
2022/06/30 11:21:24;;;;;;;11.88;5.85;;;;;;;24.97;54.78;101116.50;5041797;28;20039;-68
2022/06/30 11:23:50;;;;;;;9.35;5.20;;;;;;;24.89;54.47;101110.44;5037536;28;20568;-66